Météo Nord-Pas-de-Calais   La météo au plus près de chez vous

Station météorologique

Observations météo à Leran (09161)

09161003 391 m Dernier relevé à 11:18
31.5°C
Humidité 37 % Vent 1.8 km/h

Journée consultée

Dimanche 6 Septembre 2026

Synthèse de la journée

Périodes de référence en UTC

Température maximale

31.5°C

à 11:18

06h 06h

Température minimale

14.7°C

à 08:00

18h 18h

Rafale maximale

10 km/h

à 11:18

00h 00h

Précipitations

0 mm

Cumul quotidien

06h 06h

Graphiques de la journée

Heure locale Réduire

Données détaillées

Relevés météo

Pas de 6 minutes Afficher les relevés infra-horaires
Relevés météo détaillés à Leran pour le Dimanche 6 Septembre 2026
Heure Température °C Point de rosée °C Humidité % Vent moyen (raf.), km/h Précipitations mm
11:18 31.5 °C 12.8 °C 32 % 4 km/h (10 km/h) 0 mm0 mm
11:12 31 °C 12.8 °C 33 % 4 km/h (8 km/h) 0 mm0 mm
11:06 31 °C 12.4 °C 32 % 3 km/h (8 km/h) 0 mm0 mm
11:00 31 °C 12.4 °C 32 % 3 km/h (6 km/h) 0 mm0 mm
10:54 30.8 °C 11.7 °C 31 % 2 km/h (6 km/h) 0 mm0 mm
10:48 31 °C 12.8 °C 33 % 0 km/h (3 km/h) 0 mm0 mm
10:42 30.5 °C 12.9 °C 34 % 0 km/h (4 km/h) 0 mm0 mm
10:36 30.1 °C 13 °C 35 % 2 km/h (5 km/h) 0 mm0 mm
10:30 29.8 °C 13.1 °C 36 % 2 km/h (5 km/h) 0 mm0 mm
10:24 29.8 °C 13.1 °C 36 % 2 km/h (5 km/h) 0 mm0 mm
10:18 29 °C 12.8 °C 37 % 2 km/h (5 km/h) 0 mm0 mm
10:12 28.2 °C 12.5 °C 38 % 0 km/h (4 km/h) 0 mm0 mm
10:06 26.9 °C 12.5 °C 41 % 2 km/h (5 km/h) 0 mm0 mm
10:00 25.9 °C 13.7 °C 47 % 3 km/h (5 km/h) 0 mm0 mm
09:54 25.3 °C 13.2 °C 47 % 3 km/h (8 km/h) 0 mm0 mm
09:48 24.6 °C 13.8 °C 51 % 0 km/h (6 km/h) 0 mm0 mm
09:42 24.2 °C 14.6 °C 55 % 0 km/h (4 km/h) 0 mm0 mm
09:36 23.7 °C 14.9 °C 58 % 0 km/h (4 km/h) 0 mm0 mm
09:30 23.1 °C 14.4 °C 58 % 2 km/h (4 km/h) 0 mm0 mm
09:24 22.3 °C 14.2 °C 60 % 0 km/h (4 km/h) 0 mm0 mm
09:18 21.6 °C 14.7 °C 65 % 0 km/h (3 km/h) 0 mm0 mm
09:12 21.3 °C 14.9 °C 67 % 0 km/h (3 km/h) 0 mm0 mm
09:06 20.6 °C 14.9 °C 70 % 0 km/h (3 km/h) 0 mm0 mm
09:00 20 °C 15 °C 73 % 0 km/h (3 km/h) 0 mm0 mm
08:54 19.4 °C 14.6 °C 74 % 0 km/h (3 km/h) 0 mm0 mm
08:48 18.8 °C 14.7 °C 77 % 0 km/h (2 km/h) 0 mm0 mm
08:42 18.1 °C 14.6 °C 80 % 0 km/h (3 km/h) 0 mm0 mm
08:36 17.6 °C 14.3 °C 81 % 0 km/h (3 km/h) 0 mm0 mm
08:30 17.2 °C 13.9 °C 81 % 0 km/h (3 km/h) 0 mm0 mm
08:24 16.8 °C 14.3 °C 85 % 0 km/h (2 km/h) 0 mm0 mm
08:18 16.3 °C 14 °C 86 % 0 km/h (3 km/h) 0 mm0 mm
08:12 15.9 °C 13 °C 83 % 0 km/h (3 km/h) 0 mm0 mm
08:06 15.5 °C 12.8 °C 84 % 0 km/h (2 km/h) 0 mm0 mm
08:00 15.3 °C 13.1 °C 87 % 0 km/h (4 km/h) 0 mm0 mm
07:54 15 °C 12.9 °C 87 % 2 km/h (4 km/h) 0 mm0 mm
07:48 14.9 °C 12.8 °C 87 % 2 km/h (4 km/h) 0 mm0 mm
07:42 14.8 °C 12.7 °C 87 % 2 km/h (4 km/h) 0 mm0 mm
07:36 14.8 °C 12.7 °C 87 % 0 km/h (3 km/h) 0 mm0 mm
07:30 14.9 °C 12.6 °C 86 % 0 km/h (2 km/h) 0 mm0 mm
07:24 14.9 °C 12.6 °C 86 % 0 km/h (2 km/h) 0 mm0 mm
07:18 15 °C 12.7 °C 86 % 0 km/h (3 km/h) 0 mm0 mm
07:12 14.9 °C 12.4 °C 85 % 0 km/h (3 km/h) 0 mm0 mm
07:06 14.8 °C 12.3 °C 85 % 0 km/h (3 km/h) 0 mm0 mm
07:00 14.8 °C 12.1 °C 84 % 0 km/h (3 km/h) 0 mm0 mm
06:54 14.9 °C 12.4 °C 85 % 0 km/h (2 km/h) 0 mm0 mm
06:48 15.2 °C 13.2 °C 88 % 0 km/h (3 km/h) 0 mm0 mm
06:42 15.3 °C 13.1 °C 87 % 2 km/h (4 km/h) 0 mm0 mm
06:36 15.1 °C 12.6 °C 85 % 0 km/h (4 km/h) 0 mm0 mm
06:30 15.1 °C 12.4 °C 84 % 0 km/h (3 km/h) 0 mm0 mm
06:24 15.1 °C 12.2 °C 83 % 0 km/h (3 km/h) 0 mm0 mm
06:18 15.3 °C 12.6 °C 84 % 0 km/h (2 km/h) 0 mm0 mm
06:12 15.3 °C 12.4 °C 83 % 0 km/h (0 km/h) 0 mm0 mm
06:06 15.3 °C 12.2 °C 82 % 0 km/h (3 km/h) 0 mm0 mm
06:00 15.3 °C 12.4 °C 83 % 3 km/h (5 km/h) 0 mm0 mm
05:54 15.3 °C 12.4 °C 83 % 4 km/h (5 km/h) 0 mm0 mm
05:48 15.2 °C 12.5 °C 84 % 4 km/h (5 km/h) 0 mm0 mm
05:42 15.1 °C 12.4 °C 84 % 3 km/h (5 km/h) 0 mm0 mm
05:36 15.1 °C 12.6 °C 85 % 2 km/h (3 km/h) 0 mm0 mm
05:30 15.2 °C 12.9 °C 86 % 0 km/h (3 km/h) 0 mm0 mm
05:24 15.2 °C 12.9 °C 86 % 0 km/h (3 km/h) 0 mm0 mm
05:18 15.3 °C 13.1 °C 87 % 0 km/h (3 km/h) 0 mm0 mm
05:12 15.3 °C 13.3 °C 88 % 0 km/h (3 km/h) 0 mm0 mm
05:06 15.4 °C 13.2 °C 87 % 0 km/h (3 km/h) 0 mm0 mm
05:00 15.5 °C 13.3 °C 87 % 0 km/h (4 km/h) 0 mm0 mm
04:54 15.7 °C 13.7 °C 88 % 0 km/h (4 km/h) 0 mm0 mm
04:48 15.5 °C 13.2 °C 86 % 2 km/h (4 km/h) 0 mm0 mm
04:42 15.5 °C 13 °C 85 % 0 km/h (3 km/h) 0 mm0 mm
04:36 15.5 °C 12.8 °C 84 % 0 km/h (3 km/h) 0 mm0 mm
04:30 15.6 °C 12.9 °C 84 % 3 km/h (5 km/h) 0 mm0 mm
04:24 15.8 °C 13.1 °C 84 % 3 km/h (5 km/h) 0 mm0 mm
04:18 15.8 °C 12.9 °C 83 % 2 km/h (4 km/h) 0 mm0 mm
04:12 15.9 °C 12.6 °C 81 % 0 km/h (4 km/h) 0 mm0 mm
04:06 15.8 °C 12.4 °C 80 % 0 km/h (2 km/h) 0 mm0 mm
04:00 16 °C 12.7 °C 81 % 0 km/h (3 km/h) 0 mm0 mm
03:54 16 °C 12.7 °C 81 % 2 km/h (4 km/h) 0 mm0 mm
03:48 16 °C 12.7 °C 81 % 3 km/h (4 km/h) 0 mm0 mm
03:42 16 °C 12.7 °C 81 % 3 km/h (6 km/h) 0 mm0 mm
03:36 15.9 °C 12.8 °C 82 % 3 km/h (6 km/h) 0 mm0 mm
03:30 15.9 °C 12.8 °C 82 % 2 km/h (5 km/h) 0 mm0 mm
03:24 16.2 °C 13.9 °C 86 % 0 km/h (3 km/h) 0 mm0 mm
03:18 16 °C 13.1 °C 83 % 0 km/h (3 km/h) 0 mm0 mm
03:12 16.2 °C 13.5 °C 84 % 0 km/h (3 km/h) 0 mm0 mm
03:06 16.2 °C 13.1 °C 82 % 0 km/h (3 km/h) 0 mm0 mm
03:00 16.3 °C 13.4 °C 83 % 0 km/h (2 km/h) 0 mm0 mm
02:54 16.4 °C 13.5 °C 83 % 0 km/h (3 km/h) 0 mm0 mm
02:48 16.4 °C 13.1 °C 81 % 0 km/h (3 km/h) 0 mm0 mm
02:42 16.4 °C 12.6 °C 78 % 0 km/h (3 km/h) 0 mm0 mm
02:36 16.4 °C 12.4 °C 77 % 2 km/h (3 km/h) 0 mm0 mm
02:30 16.5 °C 12.5 °C 77 % 2 km/h (3 km/h) 0 mm0 mm
02:24 16.6 °C 12.7 °C 78 % 2 km/h (5 km/h) 0 mm0 mm
02:18 16.7 °C 13 °C 79 % 3 km/h (5 km/h) 0 mm0 mm
02:12 16.8 °C 12.7 °C 77 % 2 km/h (4 km/h) 0 mm0 mm
02:06 16.8 °C 12.7 °C 77 % 3 km/h (6 km/h) 0 mm0 mm
02:00 16.9 °C 12.6 °C 76 % 3 km/h (6 km/h) 0 mm0 mm
01:54 17.1 °C 13.2 °C 78 % 2 km/h (4 km/h) 0 mm0 mm
01:48 17.1 °C 13.2 °C 78 % 2 km/h (4 km/h) 0 mm0 mm
01:42 17.1 °C 12.6 °C 75 % 2 km/h (6 km/h) 0 mm0 mm
01:36 17.2 °C 12.5 °C 74 % 4 km/h (6 km/h) 0 mm0 mm
01:30 17.3 °C 12.8 °C 75 % 3 km/h (5 km/h) 0 mm0 mm
01:24 17.2 °C 12.5 °C 74 % 2 km/h (4 km/h) 0 mm0 mm
01:18 17.2 °C 12.7 °C 75 % 0 km/h (4 km/h) 0 mm0 mm
01:12 17.3 °C 12.8 °C 75 % 0 km/h (3 km/h) 0 mm0 mm
01:06 17.4 °C 12.9 °C 75 % 0 km/h (3 km/h) 0 mm0 mm
01:00 17.4 °C 12.9 °C 75 % 0 km/h (3 km/h) 0 mm0 mm
00:54 17.4 °C 12.5 °C 73 % 2 km/h (4 km/h) 0 mm0 mm
00:48 17.6 °C 12.9 °C 74 % 2 km/h (4 km/h) 0 mm0 mm
00:42 17.6 °C 12.5 °C 72 % 0 km/h (3 km/h) 0 mm0 mm
00:36 17.7 °C 12.8 °C 73 % 0 km/h (2 km/h) 0 mm0 mm
00:30 17.9 °C 13.2 °C 74 % 0 km/h (2 km/h) 0 mm0 mm
00:24 18.1 °C 13.2 °C 73 % 0 km/h (2 km/h) 0 mm0 mm
00:18 18.3 °C 13.6 °C 74 % 0 km/h (3 km/h) 0 mm0 mm
00:12 18.3 °C 12.5 °C 69 % 2 km/h (4 km/h) 0 mm0 mm
00:06 18.3 °C 12.5 °C 69 % 3 km/h (4 km/h) 0 mm0 mm
00:00 18.3 °C 12.5 °C 69 % 4 km/h (7 km/h) 0 mm0 mm

Données via Météo-France

Relevés météo à Leran

Cette page rassemble les observations de la station de Leran : température, humidité, vent, précipitations et pression atmosphérique. Les graphiques facilitent le suivi de la journée, tandis que le tableau donne accès aux mesures horaires et infra-horaires disponibles.

Pour replacer ces mesures dans leur contexte, consultez la climatologie de Leran ainsi que ses normales et records. Retrouvez aussi la carte des observations météo en temps réel.